Time;durP1;ratioP1;P1;durP2;ratioP2;P2;SDS_P1;SDS_P2;PMS_P1;PMS_P2;Temp;Humidity;BMP_temperature;BMP_pressure;BME280_temperature;BME280_humidity;BME280_pressure;Samples;Min_cycle;Max_cycle;Signal;HPM_P1;HPM_P2
2022/08/20 00:01:15;;;;;;;22.97;20.03;;;20.70;99.90;;;;;;5098433;28;20465;-54
2022/08/20 00:03:43;;;;;;;24.67;20.27;;;20.70;99.90;;;;;;5097835;28;20571;-50
2022/08/20 00:06:14;;;;;;;21.90;19.60;;;20.70;99.90;;;;;;5098530;28;20468;-52
2022/08/20 00:08:46;;;;;;;25.27;21.13;;;20.60;99.90;;;;;;5098669;28;20910;-53
2022/08/20 00:11:16;;;;;;;23.23;20.30;;;20.50;99.90;;;;;;5098256;28;20768;-51
2022/08/20 00:13:48;;;;;;;21.07;18.87;;;20.50;99.90;;;;;;5097964;28;20518;-50
2022/08/20 00:16:17;;;;;;;22.40;19.40;;;20.50;99.90;;;;;;5098493;28;20748;-51
2022/08/20 00:18:47;;;;;;;23.53;21.03;;;20.50;99.90;;;;;;5097557;28;20958;-50
2022/08/20 00:21:18;;;;;;;23.17;20.73;;;20.50;99.90;;;;;;5098209;28;20443;-47
2022/08/20 00:23:52;;;;;;;25.67;20.80;;;20.60;99.90;;;;;;5096838;28;20490;-52
2022/08/20 00:26:20;;;;;;;23.50;21.07;;;20.50;99.90;;;;;;5097892;28;20434;-48
2022/08/20 00:28:51;;;;;;;22.17;19.87;;;20.50;99.90;;;;;;5097495;28;20529;-49
2022/08/20 00:31:20;;;;;;;23.20;19.47;;;20.40;99.90;;;;;;5097743;28;20479;-54
2022/08/20 00:33:55;;;;;;;20.90;17.47;;;20.40;99.90;;;;;;5098206;28;20907;-49
2022/08/20 00:36:26;;;;;;;12.37;11.07;;;20.20;1.00;;;;;;5095897;28;20442;-59
2022/08/20 00:38:53;;;;;;;12.60;11.00;;;19.90;99.90;;;;;;5096744;28;21107;-65
2022/08/20 00:41:26;;;;;;;14.37;12.97;;;19.60;1.00;;;;;;5098067;28;20527;-65
2022/08/20 00:44:08;;;;;;;15.93;14.00;;;19.50;99.90;;;;;;5096749;28;20496;-64
2022/08/20 00:46:36;;;;;;;16.83;15.03;;;19.50;51.70;;;;;;5100608;28;20773;-62
2022/08/20 00:49:07;;;;;;;19.60;17.50;;;19.60;99.90;;;;;;5096619;28;20435;-62
2022/08/20 00:51:43;;;;;;;22.00;19.67;;;19.60;99.90;;;;;;5099287;28;20526;-62
2022/08/20 00:54:17;;;;;;;22.27;19.87;;;19.60;99.90;;;;;;5097894;28;20931;-61
2022/08/20 00:56:49;;;;;;;21.50;19.20;;;19.60;99.90;;;;;;5097857;28;20537;-61
2022/08/20 00:59:23;;;;;;;22.30;20.07;;;19.60;25.00;;;;;;5097885;28;20435;-60
2022/08/20 01:01:51;;;;;;;24.20;21.90;;;19.60;99.90;;;;;;5098723;28;20506;-61
2022/08/20 01:04:20;;;;;;;24.90;22.40;;;19.70;1.00;;;;;;5096968;28;20492;-60
2022/08/20 01:06:47;;;;;;;25.87;22.30;;;19.70;1.00;;;;;;5095350;28;20467;-60
2022/08/20 01:09:16;;;;;;;27.00;24.20;;;19.70;1.00;;;;;;5097154;28;20501;-60
2022/08/20 01:11:45;;;;;;;26.73;23.93;;;19.70;1.00;;;;;;5097461;28;20484;-60
2022/08/20 01:17:01;;;;;;;24.37;21.93;;;19.60;99.90;;;;;;5096497;28;20463;-55
2022/08/20 01:19:33;;;;;;;25.47;22.80;;;19.60;99.90;;;;;;5097305;28;20767;-59
2022/08/20 01:23:25;;;;;;;26.33;23.63;;;19.60;54.40;;;;;;5077648;28;20467;-60
2022/08/20 01:24:56;;;;;;;28.17;25.37;;;19.70;26.90;;;;;;5077384;28;20932;-60
2022/08/20 01:27:31;;;;;;;25.17;22.87;;;19.80;1.00;;;;;;5093215;28;20461;-59
2022/08/20 01:30:02;;;;;;;27.47;24.57;;;19.80;1.00;;;;;;5098128;28;20435;-60
2022/08/20 01:32:32;;;;;;;26.73;24.27;;;19.80;38.00;;;;;;5077728;28;20445;-61
2022/08/20 01:34:59;;;;;;;27.67;24.97;;;19.90;99.90;;;;;;5076993;28;20493;-62
2022/08/20 01:37:26;;;;;;;24.50;22.10;;;19.80;99.90;;;;;;5088991;28;20833;-64
2022/08/20 01:39:54;;;;;;;23.10;20.80;;;19.70;99.90;;;;;;5097251;28;20435;-59
2022/08/20 01:42:29;;;;;;;22.63;19.93;;;19.50;1.00;;;;;;5096879;28;20901;-60
2022/08/20 01:44:56;;;;;;;23.40;21.00;;;19.30;1.00;;;;;;5096889;28;20466;-61
2022/08/20 01:47:26;;;;;;;25.20;22.33;;;19.30;99.90;;;;;;5096433;28;20456;-63
2022/08/20 01:49:57;;;;;;;23.23;20.97;;;19.20;99.90;;;;;;5100387;28;20513;-64
2022/08/20 01:52:33;;;;;;;23.80;21.27;;;19.20;99.90;;;;;;5102255;28;20538;-64
2022/08/20 01:55:01;;;;;;;23.43;20.63;;;19.10;99.90;;;;;;5102257;28;20541;-63
2022/08/20 01:57:30;;;;;;;23.23;20.57;;;19.10;99.90;;;;;;5100225;28;20492;-61
2022/08/20 01:59:57;;;;;;;21.83;19.43;;;19.10;99.90;;;;;;5101376;28;20471;-60
2022/08/20 02:02:26;;;;;;;22.73;20.33;;;19.00;99.90;;;;;;5100555;28;20929;-60
2022/08/20 02:04:53;;;;;;;21.73;18.87;;;19.00;99.90;;;;;;5100988;28;20583;-61
2022/08/20 02:07:23;;;;;;;20.20;18.20;;;19.00;99.90;;;;;;5100355;28;20503;-61
2022/08/20 02:09:54;;;;;;;22.03;19.73;;;19.20;99.90;;;;;;5101113;28;20463;-61
2022/08/20 02:12:21;;;;;;;21.57;19.27;;;19.10;99.90;;;;;;5100297;28;20435;-58
2022/08/20 02:14:53;;;;;;;22.00;19.70;;;19.20;99.90;;;;;;5100173;28;20559;-59
2022/08/20 02:17:22;;;;;;;22.40;20.10;;;19.10;99.90;;;;;;5100600;28;20464;-60
2022/08/20 02:19:53;;;;;;;21.73;19.53;;;19.20;99.90;;;;;;5100549;28;20460;-61
2022/08/20 02:22:23;;;;;;;23.67;21.17;;;19.30;99.90;;;;;;5081729;28;20436;-62
2022/08/20 02:24:52;;;;;;;24.07;21.50;;;19.20;99.90;;;;;;5081247;28;20493;-63
2022/08/20 02:27:22;;;;;;;23.63;20.30;;;19.30;99.90;;;;;;5082392;28;20481;-63
2022/08/20 02:29:51;;;;;;;23.13;20.63;;;19.40;57.40;;;;;;5096260;28;20464;-63
2022/08/20 02:32:22;;;;;;;23.87;21.33;;;19.30;1.00;;;;;;5103796;28;20534;-62
2022/08/20 02:34:49;;;;;;;24.13;21.57;;;19.30;99.90;;;;;;5102083;28;20555;-62
2022/08/20 02:37:18;;;;;;;25.47;22.87;;;19.40;1.00;;;;;;5103073;28;20468;-62
2022/08/20 02:39:45;;;;;;;25.03;22.23;;;19.30;1.00;;;;;;5101723;28;20502;-62
2022/08/20 02:42:13;;;;;;;26.20;23.50;;;19.30;99.00;;;;;;5101988;28;20509;-62
2022/08/20 02:44:41;;;;;;;26.13;22.93;;;19.30;99.90;;;;;;5101674;28;20505;-62
2022/08/20 02:47:10;;;;;;;26.53;23.70;;;19.30;99.90;;;;;;5101832;28;20929;-62
2022/08/20 02:49:39;;;;;;;25.70;22.97;;;19.30;99.90;;;;;;5102280;28;20491;-62
2022/08/20 02:52:09;;;;;;;27.73;23.50;;;19.30;99.90;;;;;;5102502;28;20564;-62
2022/08/20 02:54:36;;;;;;;26.37;23.30;;;19.30;99.90;;;;;;5102413;28;20749;-62
2022/08/20 02:57:11;;;;;;;27.50;24.33;;;19.30;99.90;;;;;;5102275;28;20554;-62
2022/08/20 02:59:41;;;;;;;29.67;22.37;;;19.30;99.90;;;;;;5101929;28;20518;-61
2022/08/20 03:02:10;;;;;;;28.90;25.40;;;19.30;99.90;;;;;;5101547;28;20438;-62
2022/08/20 03:04:38;;;;;;;27.63;24.60;;;19.20;99.90;;;;;;5101604;28;20459;-61
2022/08/20 03:07:06;;;;;;;27.50;22.70;;;19.20;99.90;;;;;;5102638;28;20591;-61
2022/08/20 03:09:33;;;;;;;34.30;25.17;;;19.20;99.90;;;;;;5102739;28;20871;-61
2022/08/20 03:12:06;;;;;;;29.67;25.43;;;19.20;99.90;;;;;;5100681;28;20808;-61
2022/08/20 03:14:37;;;;;;;26.73;23.83;;;19.20;99.90;;;;;;5102370;28;20438;-61
2022/08/20 03:17:08;;;;;;;28.33;24.30;;;19.20;99.90;;;;;;5102113;28;20488;-61
2022/08/20 03:19:37;;;;;;;27.00;23.03;;;19.20;99.90;;;;;;5102327;28;20467;-61
2022/08/20 03:22:05;;;;;;;26.13;23.20;;;19.20;99.90;;;;;;5102238;28;20496;-61
2022/08/20 03:24:32;;;;;;;28.10;23.50;;;19.20;99.90;;;;;;5102256;28;20543;-61
2022/08/20 03:27:02;;;;;;;29.70;26.50;;;19.20;99.90;;;;;;5101652;28;20435;-61
2022/08/20 03:29:29;;;;;;;30.13;26.83;;;19.20;99.90;;;;;;5102403;28;20460;-61
2022/08/20 03:31:59;;;;;;;31.93;27.27;;;19.20;99.90;;;;;;5101433;28;20563;-61
2022/08/20 03:34:30;;;;;;;31.33;26.30;;;19.20;99.90;;;;;;5101180;28;20469;-61
2022/08/20 03:36:59;;;;;;;29.27;26.03;;;19.10;99.90;;;;;;5102385;28;20940;-61
2022/08/20 03:39:26;;;;;;;29.87;26.00;;;19.10;99.90;;;;;;5101866;28;20438;-61
2022/08/20 03:41:54;;;;;;;31.67;26.53;;;19.10;99.90;;;;;;5101303;28;20509;-60
2022/08/20 03:44:21;;;;;;;29.27;25.10;;;19.20;99.90;;;;;;5101579;28;20500;-61
2022/08/20 03:46:48;;;;;;;29.40;25.80;;;19.10;99.90;;;;;;5101342;28;20439;-61
2022/08/20 03:49:16;;;;;;;29.60;24.60;;;19.30;99.90;;;;;;5101740;28;20529;-61
2022/08/20 03:51:43;;;;;;;28.07;24.80;;;19.30;99.90;;;;;;5101461;28;20463;-61
2022/08/20 03:54:11;;;;;;;27.83;23.10;;;19.30;99.90;;;;;;5100735;28;20832;-61
2022/08/20 03:56:42;;;;;;;27.87;24.73;;;19.30;99.90;;;;;;5101810;28;20835;-61
2022/08/20 03:59:09;;;;;;;32.13;26.90;;;19.30;99.90;;;;;;5101802;28;20460;-61
2022/08/20 04:01:36;;;;;;;27.13;24.23;;;19.20;99.90;;;;;;5101940;28;20559;-61
2022/08/20 04:04:04;;;;;;;28.77;25.50;;;19.20;99.90;;;;;;5101078;28;20446;-61
2022/08/20 04:06:33;;;;;;;25.90;22.43;;;19.10;99.90;;;;;;5102000;28;20983;-61
2022/08/20 04:09:00;;;;;;;27.33;24.13;;;19.10;99.90;;;;;;5101532;28;20489;-61
2022/08/20 04:11:29;;;;;;;28.60;25.23;;;19.10;99.90;;;;;;5102204;28;20559;-61
2022/08/20 04:13:56;;;;;;;29.73;24.97;;;19.20;99.90;;;;;;5100779;28;20555;-61
2022/08/20 04:16:23;;;;;;;30.03;26.17;;;19.20;99.90;;;;;;5101718;28;20460;-61
2022/08/20 04:18:50;;;;;;;28.53;24.23;;;19.20;99.90;;;;;;5101441;28;20955;-61
2022/08/20 04:21:18;;;;;;;31.07;25.73;;;19.20;99.90;;;;;;5102063;28;20523;-61
2022/08/20 04:23:45;;;;;;;28.30;25.00;;;19.20;99.90;;;;;;5101128;28;20556;-61
2022/08/20 04:26:15;;;;;;;30.93;24.63;;;19.20;99.90;;;;;;5101619;28;20527;-61
2022/08/20 04:28:44;;;;;;;26.43;23.13;;;19.30;99.90;;;;;;5101723;28;20464;-61
2022/08/20 04:31:13;;;;;;;27.13;23.80;;;19.30;99.90;;;;;;5101274;28;20439;-61
2022/08/20 04:33:42;;;;;;;25.83;23.10;;;19.30;99.90;;;;;;5100832;28;20464;-61
2022/08/20 04:36:10;;;;;;;27.83;22.90;;;19.40;99.90;;;;;;5100890;28;20600;-61
2022/08/20 04:38:38;;;;;;;25.83;23.03;;;19.30;99.90;;;;;;5100044;28;20502;-61
2022/08/20 04:41:05;;;;;;;26.90;23.80;;;19.40;99.90;;;;;;5100473;28;20461;-61
2022/08/20 04:43:35;;;;;;;25.57;22.93;;;19.40;99.90;;;;;;5100242;28;20965;-61
2022/08/20 04:46:08;;;;;;;28.33;25.23;;;19.40;99.90;;;;;;5099335;28;20494;-61
2022/08/20 04:48:37;;;;;;;27.53;22.30;;;19.40;99.90;;;;;;5100136;28;20563;-61
2022/08/20 04:51:07;;;;;;;26.37;22.20;;;19.40;99.90;;;;;;5099488;28;20460;-61
2022/08/20 04:53:35;;;;;;;26.57;23.70;;;19.50;99.90;;;;;;5100934;28;20880;-61
2022/08/20 04:56:03;;;;;;;25.93;22.50;;;19.50;99.90;;;;;;5101200;28;20769;-61
2022/08/20 04:58:33;;;;;;;28.30;23.73;;;19.50;99.90;;;;;;5099964;28;20464;-61
2022/08/20 05:01:05;;;;;;;25.80;22.60;;;19.50;99.90;;;;;;5099787;28;20471;-61
2022/08/20 05:03:32;;;;;;;25.53;22.87;;;19.60;99.90;;;;;;5099735;28;20532;-61
2022/08/20 05:06:01;;;;;;;29.33;23.30;;;19.70;99.90;;;;;;5101166;28;20467;-61
2022/08/20 05:08:29;;;;;;;26.73;22.30;;;19.70;99.90;;;;;;5101108;28;20457;-61
2022/08/20 05:10:57;;;;;;;24.57;22.07;;;19.80;99.90;;;;;;5101744;28;20493;-61
2022/08/20 05:13:29;;;;;;;25.20;22.10;;;19.80;99.90;;;;;;5100988;28;20979;-62
2022/08/20 05:16:00;;;;;;;25.37;22.80;;;19.90;1.00;;;;;;5099912;28;20466;-60
2022/08/20 05:18:33;;;;;;;31.47;25.03;;;19.90;1.00;;;;;;5100867;28;20499;-61
2022/08/20 05:21:04;;;;;;;29.00;25.90;;;19.90;1.00;;;;;;5101318;28;20464;-61
2022/08/20 05:23:36;;;;;;;32.27;28.67;;;19.90;99.90;;;;;;5100102;28;20446;-60
2022/08/20 05:26:06;;;;;;;27.93;25.13;;;19.90;1.00;;;;;;5099835;28;20561;-60
2022/08/20 05:28:34;;;;;;;30.47;27.30;;;19.90;99.90;;;;;;5100522;28;20522;-60
2022/08/20 05:31:08;;;;;;;30.70;27.77;;;19.80;99.90;;;;;;5100320;28;20456;-61
2022/08/20 05:33:38;;;;;;;28.90;26.00;;;19.80;99.90;;;;;;5101052;28;20493;-60
2022/08/20 05:36:09;;;;;;;29.47;26.30;;;19.80;99.90;;;;;;5102026;28;20459;-60
2022/08/20 05:38:37;;;;;;;30.50;27.30;;;19.80;99.90;;;;;;5101219;28;20532;-60
2022/08/20 05:41:06;;;;;;;30.13;26.93;;;19.80;99.90;;;;;;5102126;28;20831;-60
2022/08/20 05:43:35;;;;;;;30.23;26.73;;;19.80;99.90;;;;;;5100134;28;20473;-57
2022/08/20 05:46:05;;;;;;;29.80;26.57;;;19.80;1.00;;;;;;5100168;28;20490;-61
2022/08/20 05:48:34;;;;;;;31.40;28.20;;;19.80;99.90;;;;;;5098898;28;20550;-56
2022/08/20 05:51:03;;;;;;;29.60;26.53;;;19.80;99.90;;;;;;5099493;28;20435;-59
2022/08/20 05:53:30;;;;;;;32.20;28.73;;;19.80;99.90;;;;;;5099913;28;20525;-61
2022/08/20 05:56:00;;;;;;;30.30;27.10;;;19.70;1.00;;;;;;5100033;28;20521;-61
2022/08/20 05:58:29;;;;;;;33.10;27.50;;;19.50;1.00;;;;;;5098475;28;20464;-60
2022/08/20 06:00:57;;;;;;;28.80;25.70;;;19.40;99.90;;;;;;5097314;28;20439;-60
2022/08/20 06:06:29;;;;;;;30.10;26.40;;;19.40;99.90;;;;;;5034239;28;20558;-57
2022/08/20 06:08:59;;;;;;;29.03;25.93;;;19.20;99.90;;;;;;5034106;28;20486;-58
2022/08/20 06:11:27;;;;;;;29.77;25.20;;;19.30;99.90;;;;;;5062754;28;20809;-56
2022/08/20 06:13:54;;;;;;;29.67;25.77;;;19.20;99.90;;;;;;5096272;28;20467;-57
2022/08/20 06:16:22;;;;;;;30.40;25.33;;;19.00;99.90;;;;;;5096770;28;20496;-60
2022/08/20 06:18:49;;;;;;;32.87;26.63;;;18.90;99.90;;;;;;5096672;28;20550;-58
2022/08/20 06:21:16;;;;;;;26.63;23.53;;;18.90;99.90;;;;;;5095652;28;20460;-54
2022/08/20 06:23:45;;;;;;;29.87;25.17;;;18.90;99.90;;;;;;5096946;28;20990;-50
2022/08/20 06:26:14;;;;;;;31.83;23.50;;;18.90;99.90;;;;;;5076591;28;20489;-53
2022/08/20 06:28:42;;;;;;;23.80;21.10;;;18.90;99.90;;;;;;5076200;28;20530;-54
2022/08/20 06:31:10;;;;;;;24.33;18.87;;;18.90;99.90;;;;;;5076520;28;20547;-57
2022/08/20 06:33:38;;;;;;;20.87;18.67;;;18.70;99.90;;;;;;5077004;28;20940;-59
2022/08/20 06:36:05;;;;;;;17.67;15.60;;;18.70;99.90;;;;;;5091395;28;20514;-55
2022/08/20 06:38:33;;;;;;;16.50;14.70;;;18.90;99.90;;;;;;5099096;28;20521;-58
2022/08/20 06:41:02;;;;;;;16.00;14.30;;;19.00;99.90;;;;;;5078864;28;20464;-59
2022/08/20 06:43:30;;;;;;;14.57;13.07;;;19.10;99.90;;;;;;5080139;28;20463;-58
2022/08/20 06:46:01;;;;;;;14.00;12.70;;;19.10;99.90;;;;;;5090141;28;20943;-57
2022/08/20 06:48:28;;;;;;;14.83;13.33;;;19.10;99.90;;;;;;5099545;28;20925;-58
2022/08/20 06:50:55;;;;;;;13.37;12.00;;;19.20;99.90;;;;;;5100022;28;20467;-59
2022/08/20 06:53:30;;;;;;;13.00;11.77;;;19.20;99.90;;;;;;5099148;28;20455;-56
2022/08/20 06:56:01;;;;;;;15.77;14.27;;;19.20;99.90;;;;;;5098339;28;20456;-55
2022/08/20 06:58:31;;;;;;;12.27;11.17;;;19.30;99.90;;;;;;5096178;28;20457;-57
2022/08/20 07:01:00;;;;;;;13.57;12.17;;;19.20;99.90;;;;;;5098314;28;20752;-57
2022/08/20 07:03:27;;;;;;;14.43;13.00;;;19.20;99.90;;;;;;5098170;28;20465;-58
2022/08/20 07:05:54;;;;;;;15.77;14.20;;;19.30;99.90;;;;;;5098465;28;21015;-57
2022/08/20 07:08:28;;;;;;;14.50;13.10;;;19.30;99.90;;;;;;5099855;28;20487;-58
2022/08/20 07:10:55;;;;;;;15.27;13.67;;;19.40;99.90;;;;;;5099867;28;20495;-52
2022/08/20 07:13:27;;;;;;;15.60;14.00;;;19.50;99.90;;;;;;5099668;28;20485;-50
2022/08/20 07:15:54;;;;;;;15.73;14.23;;;19.60;99.90;;;;;;5099421;28;20452;-59
2022/08/20 07:18:23;;;;;;;16.67;15.00;;;19.70;99.90;;;;;;5098162;28;20574;-57
2022/08/20 07:20:53;;;;;;;16.80;15.10;;;19.70;99.90;;;;;;5099241;28;20529;-59
2022/08/20 07:23:21;;;;;;;18.00;16.10;;;19.80;25.20;;;;;;5099315;28;20483;-56
2022/08/20 07:25:51;;;;;;;18.67;16.77;;;19.90;1.00;;;;;;5098354;28;20462;-59
2022/08/20 07:28:22;;;;;;;19.40;17.40;;;19.90;99.90;;;;;;5098015;28;20557;-58
2022/08/20 07:33:43;;;;;;;20.17;18.17;;;19.90;1.00;;;;;;5098082;28;20746;-55
2022/08/20 07:36:12;;;;;;;19.77;17.77;;;19.90;1.00;;;;;;5096023;28;20480;-55
2022/08/20 07:38:44;;;;;;;19.40;17.40;;;19.90;1.00;;;;;;5095587;28;20435;-54
2022/08/20 07:41:18;;;;;;;19.03;17.33;;;19.80;4.70;;;;;;5098136;28;20439;-55
2022/08/20 07:43:47;;;;;;;18.27;16.47;;;19.80;1.00;;;;;;5102086;28;20579;-56
2022/08/20 07:46:18;;;;;;;18.47;16.67;;;19.70;99.90;;;;;;5098959;28;20459;-58
2022/08/20 07:48:51;;;;;;;18.87;17.00;;;19.80;99.90;;;;;;5100068;28;20551;-53
2022/08/20 07:51:21;;;;;;;18.13;16.13;;;19.70;1.00;;;;;;5077102;28;20471;-52
2022/08/20 07:53:52;;;;;;;18.93;17.03;;;19.70;99.90;;;;;;5094669;28;21036;-54
2022/08/20 07:56:25;;;;;;;19.40;17.50;;;19.60;1.00;;;;;;5098421;28;20439;-56
2022/08/20 07:58:55;;;;;;;19.40;17.60;;;19.70;50.90;;;;;;5108531;28;20460;-52
2022/08/20 08:01:30;;;;;;;19.07;17.27;;;19.90;99.90;;;;;;5114926;28;20463;-52
2022/08/20 08:04:01;;;;;;;20.37;18.53;;;19.80;99.90;;;;;;5099264;28;20464;-52
2022/08/20 08:06:30;;;;;;;18.47;16.67;;;19.90;99.90;;;;;;5098283;28;20924;-52
2022/08/20 08:09:04;;;;;;;19.77;17.77;;;20.00;1.00;;;;;;5097737;28;20847;-51
2022/08/20 08:11:33;;;;;;;19.50;17.73;;;20.20;99.90;;;;;;5098107;28;20926;-55
2022/08/20 08:14:04;;;;;;;20.13;18.23;;;20.20;1.00;;;;;;5098376;28;20442;-51
2022/08/20 08:16:33;;;;;;;19.87;18.07;;;20.40;1.00;;;;;;5098629;28;20435;-54
2022/08/20 08:19:06;;;;;;;17.17;15.47;;;20.60;99.90;;;;;;5096801;28;20519;-54
2022/08/20 08:21:35;;;;;;;16.40;14.90;;;20.90;99.90;;;;;;5098162;28;20519;-57
2022/08/20 08:24:02;;;;;;;17.30;15.60;;;21.00;99.90;;;;;;5098283;28;20453;-57
2022/08/20 08:26:32;;;;;;;21.53;19.43;;;21.00;1.00;;;;;;5098505;28;20798;-53
2022/08/20 08:29:02;;;;;;;20.97;18.97;;;21.00;63.70;;;;;;5098291;28;20468;-50
2022/08/20 08:31:30;;;;;;;24.33;21.93;;;20.80;1.00;;;;;;5097645;28;20445;-50
2022/08/20 08:33:59;;;;;;;25.27;22.67;;;20.60;1.00;;;;;;5097645;28;20456;-52
2022/08/20 08:36:26;;;;;;;27.50;24.60;;;20.20;1.00;;;;;;5098161;28;20878;-49
2022/08/20 08:38:54;;;;;;;27.37;24.47;;;20.10;1.00;;;;;;5098378;28;20558;-49
2022/08/20 08:41:31;;;;;;;28.40;25.50;;;20.10;99.90;;;;;;5097261;28;20897;-56
2022/08/20 08:44:04;;;;;;;30.27;27.00;;;20.00;1.00;;;;;;5097923;28;20887;-54
2022/08/20 08:46:37;;;;;;;33.50;29.33;;;20.00;58.80;;;;;;5089371;28;20927;-56
2022/08/20 08:49:07;;;;;;;29.93;26.03;;;19.90;99.90;;;;;;5077514;28;20488;-58
2022/08/20 08:51:41;;;;;;;31.53;28.07;;;19.90;1.00;;;;;;5088280;28;20461;-55
2022/08/20 08:54:12;;;;;;;31.57;27.57;;;19.90;99.90;;;;;;5097766;28;20496;-57
2022/08/20 08:56:40;;;;;;;32.10;28.70;;;20.20;99.90;;;;;;5096780;28;20465;-57
2022/08/20 08:59:09;;;;;;;32.27;28.93;;;20.50;1.00;;;;;;5097649;28;20555;-54
2022/08/20 09:01:41;;;;;;;34.87;30.23;;;20.90;1.00;;;;;;5096839;28;20467;-59
2022/08/20 09:04:12;;;;;;;31.70;28.40;;;20.80;99.90;;;;;;5097512;28;20468;-54
2022/08/20 09:06:42;;;;;;;29.33;26.23;;;20.80;1.00;;;;;;5096931;28;20964;-58
2022/08/20 09:09:19;;;;;;;32.30;28.80;;;20.80;1.00;;;;;;5095565;28;20555;-52
2022/08/20 09:11:58;;;;;;;29.33;26.27;;;20.80;1.00;;;;;;5096156;28;20464;-55
2022/08/20 09:14:29;;;;;;;28.33;24.93;;;20.70;1.00;;;;;;5094256;28;20443;-59
2022/08/20 09:16:59;;;;;;;30.63;26.90;;;20.50;99.90;;;;;;5086193;28;20453;-59
2022/08/20 09:19:29;;;;;;;29.30;26.20;;;20.20;99.90;;;;;;5094195;28;20950;-59
2022/08/20 09:22:14;;;;;;;29.83;25.70;;;20.00;99.90;;;;;;5094014;28;20464;-58
2022/08/20 09:24:44;;;;;;;27.00;24.27;;;19.70;99.90;;;;;;5097268;28;20529;-60
2022/08/20 09:27:12;;;;;;;30.10;26.73;;;19.70;1.00;;;;;;5096217;28;20521;-60
2022/08/20 09:29:43;;;;;;;31.33;27.43;;;19.70;1.00;;;;;;5096423;28;20529;-60
2022/08/20 09:32:15;;;;;;;32.87;26.17;;;19.80;1.00;;;;;;5095968;28;20468;-59
2022/08/20 09:34:50;;;;;;;27.83;24.30;;;19.80;1.00;;;;;;5077348;28;20465;-61
2022/08/20 09:37:19;;;;;;;31.50;25.63;;;19.60;1.00;;;;;;5082743;28;20456;-60
2022/08/20 09:39:52;;;;;;;28.57;25.33;;;19.50;7.00;;;;;;5094678;28;20500;-60
2022/08/20 09:42:21;;;;;;;28.77;23.80;;;19.30;96.40;;;;;;5095954;28;20529;-61
2022/08/20 09:44:50;;;;;;;31.57;26.43;;;19.30;99.90;;;;;;5096367;28;20930;-61
2022/08/20 09:47:19;;;;;;;26.67;22.90;;;19.30;1.00;;;;;;5096072;28;20538;-61
2022/08/20 09:49:52;;;;;;;31.07;25.90;;;19.30;1.00;;;;;;5092799;28;20843;-61
2022/08/20 09:52:24;;;;;;;34.77;24.43;;;19.20;99.90;;;;;;5096887;28;20515;-60
2022/08/20 09:54:58;;;;;;;35.43;25.47;;;19.20;1.00;;;;;;5096371;28;20465;-61
2022/08/20 09:57:25;;;;;;;37.37;25.07;;;19.20;99.90;;;;;;5095915;28;20435;-61
2022/08/20 09:59:59;;;;;;;29.40;24.40;;;19.00;99.90;;;;;;5088929;28;20524;-61
2022/08/20 10:02:27;;;;;;;29.47;24.17;;;19.10;99.90;;;;;;5077269;28;20465;-61
2022/08/20 10:04:59;;;;;;;33.43;26.10;;;19.20;1.00;;;;;;5090347;28;20435;-61
2022/08/20 10:07:26;;;;;;;31.30;25.67;;;19.20;99.90;;;;;;5097331;28;20547;-61
2022/08/20 10:09:54;;;;;;;31.50;24.57;;;19.30;99.90;;;;;;5097332;28;20465;-61
2022/08/20 10:12:23;;;;;;;33.00;24.80;;;19.30;99.90;;;;;;5102195;28;20948;-62
2022/08/20 10:14:50;;;;;;;26.80;21.57;;;19.50;32.60;;;;;;5101236;28;20909;-62
2022/08/20 10:17:19;;;;;;;27.00;23.80;;;19.50;63.80;;;;;;5101221;28;20456;-62
2022/08/20 10:19:49;;;;;;;30.30;22.40;;;19.60;1.00;;;;;;5101117;28;20488;-61
2022/08/20 10:22:24;;;;;;;27.00;21.50;;;19.40;1.00;;;;;;5101817;28;20513;-61
2022/08/20 10:24:53;;;;;;;30.97;22.27;;;19.70;2.10;;;;;;5101374;28;20554;-62
2022/08/20 10:27:22;;;;;;;26.30;20.67;;;19.90;99.90;;;;;;5100643;28;20813;-62
2022/08/20 10:29:52;;;;;;;28.77;20.80;;;20.20;99.90;;;;;;5100950;28;20435;-62
2022/08/20 10:32:19;;;;;;;27.17;20.50;;;20.40;99.90;;;;;;5100741;28;20462;-62
2022/08/20 10:34:46;;;;;;;23.13;20.73;;;20.70;7.40;;;;;;5100923;28;20923;-62
2022/08/20 10:37:19;;;;;;;22.37;19.07;;;20.80;1.00;;;;;;5100703;28;20456;-62
2022/08/20 10:39:48;;;;;;;24.33;20.17;;;21.00;1.00;;;;;;5100572;28;20555;-63
2022/08/20 10:42:16;;;;;;;23.33;19.90;;;21.20;1.00;;;;;;5100403;28;20470;-63
2022/08/20 10:44:43;;;;;;;22.97;19.40;;;22.10;1.00;;;;;;5100375;28;20430;-64
2022/08/20 10:47:18;;;;;;;22.50;16.60;;;22.90;1.00;;;;;;5099474;28;20515;-63
2022/08/20 10:49:47;;;;;;;19.37;17.47;;;23.70;1.00;;;;;;5098506;28;20533;-63
2022/08/20 10:52:15;;;;;;;19.30;17.30;;;24.50;99.90;;;;;;5097824;28;20551;-64
2022/08/20 10:54:45;;;;;;;18.90;15.63;;;24.40;99.90;;;;;;5098730;28;20431;-63
2022/08/20 10:57:23;;;;;;;20.10;16.20;;;24.40;99.90;;;;;;5097036;28;20760;-63
2022/08/20 10:59:52;;;;;;;17.43;15.63;;;24.10;99.90;;;;;;5096918;28;20460;-63
2022/08/20 11:02:22;;;;;;;15.93;14.23;;;23.80;99.90;;;;;;5098227;28;20457;-63
2022/08/20 11:04:50;;;;;;;16.23;14.60;;;24.60;99.90;;;;;;5098819;28;20435;-63
2022/08/20 11:07:20;;;;;;;17.57;15.67;;;24.60;99.90;;;;;;5099209;28;20489;-62
2022/08/20 11:09:58;;;;;;;17.33;14.73;;;24.10;99.90;;;;;;5098347;28;20460;-62
2022/08/20 11:12:28;;;;;;;16.93;15.33;;;23.30;99.90;;;;;;5098516;28;20460;-62
2022/08/20 11:14:57;;;;;;;16.63;14.93;;;23.30;99.90;;;;;;5098685;28;20534;-62
2022/08/20 11:17:28;;;;;;;17.73;15.30;;;23.10;99.90;;;;;;5098597;28;20554;-62
2022/08/20 11:19:57;;;;;;;19.93;15.27;;;22.90;99.90;;;;;;5098541;28;20991;-62
2022/08/20 11:22:26;;;;;;;18.17;14.80;;;22.70;99.90;;;;;;5097526;28;20435;-61
2022/08/20 11:24:58;;;;;;;16.77;14.93;;;22.60;99.90;;;;;;5098775;28;20460;-60
2022/08/20 11:27:29;;;;;;;16.00;14.30;;;23.00;99.90;;;;;;5098193;28;20496;-61
2022/08/20 11:29:56;;;;;;;15.07;13.47;;;23.80;99.90;;;;;;5099399;28;20471;-61
2022/08/20 11:32:24;;;;;;;20.33;15.20;;;24.30;99.90;;;;;;5098585;28;20767;-58
2022/08/20 11:34:52;;;;;;;17.70;12.40;;;24.90;99.90;;;;;;5099526;28;20570;-62
2022/08/20 11:37:24;;;;;;;15.63;13.77;;;25.60;99.90;;;;;;5099059;28;20463;-62
2022/08/20 11:39:52;;;;;;;14.93;13.43;;;25.60;99.90;;;;;;5098568;28;20554;-61
2022/08/20 11:42:21;;;;;;;14.80;13.30;;;26.20;99.90;;;;;;5098863;28;20877;-61
2022/08/20 11:44:51;;;;;;;11.90;10.70;;;26.50;99.90;;;;;;5099222;28;20559;-62
2022/08/20 11:47:32;;;;;;;16.07;13.90;;;26.50;99.90;;;;;;5098488;28;20499;-62
2022/08/20 11:50:01;;;;;;;15.53;13.67;;;26.80;99.90;;;;;;5097702;28;20464;-61
2022/08/20 11:52:30;;;;;;;13.70;11.80;;;26.90;99.90;;;;;;5098406;28;20464;-59
2022/08/20 11:54:58;;;;;;;13.70;11.30;;;27.40;99.90;;;;;;5098750;28;20470;-59
2022/08/20 11:57:31;;;;;;;12.60;11.43;;;27.50;99.90;;;;;;5105763;28;20462;-61
2022/08/20 12:00:05;;;;;;;11.80;10.60;;;27.60;99.90;;;;;;5077223;28;20457;-61
2022/08/20 12:02:33;;;;;;;11.17;10.13;;;27.60;99.90;;;;;;5110656;28;20445;-60
2022/08/20 12:05:00;;;;;;;11.93;10.73;;;27.60;99.90;;;;;;5099256;28;21000;-57
2022/08/20 12:07:27;;;;;;;12.00;10.33;;;27.50;99.90;;;;;;5111599;28;20878;-59
2022/08/20 12:09:58;;;;;;;13.57;10.10;;;27.80;99.90;;;;;;5101818;28;20464;-60
2022/08/20 12:12:35;;;;;;;11.00;9.87;;;27.70;99.90;;;;;;5098769;28;20747;-61
2022/08/20 12:15:09;;;;;;;12.30;11.10;;;27.60;99.90;;;;;;5088317;28;20499;-61
2022/08/20 12:17:38;;;;;;;12.60;11.03;;;27.80;99.90;;;;;;5077295;28;20459;-61
2022/08/20 12:20:09;;;;;;;10.63;9.60;;;28.00;99.90;;;;;;5092032;28;20893;-61
2022/08/20 12:22:36;;;;;;;9.87;8.97;;;28.00;99.90;;;;;;5098357;28;20552;-60
2022/08/20 12:25:05;;;;;;;10.83;9.43;;;27.60;99.90;;;;;;5097975;28;20512;-60
2022/08/20 12:27:35;;;;;;;11.90;9.97;;;27.60;99.90;;;;;;5097756;28;20488;-60
2022/08/20 12:30:06;;;;;;;10.57;9.57;;;27.50;99.90;;;;;;5097727;28;20467;-57
2022/08/20 12:32:37;;;;;;;11.23;10.13;;;27.50;99.90;;;;;;5097599;28;20447;-60
2022/08/20 12:35:08;;;;;;;10.43;8.47;;;28.10;99.90;;;;;;5096444;28;20554;-60
2022/08/20 12:37:36;;;;;;;8.00;7.30;;;28.40;99.90;;;;;;5098233;28;20555;-58
2022/08/20 12:40:09;;;;;;;8.73;8.00;;;28.40;99.90;;;;;;5097031;28;20467;-60
2022/08/20 12:42:38;;;;;;;9.40;8.50;;;28.70;99.90;;;;;;5097130;28;20435;-59
2022/08/20 12:45:09;;;;;;;10.37;9.00;;;28.50;99.90;;;;;;5096682;28;20459;-60
2022/08/20 12:47:40;;;;;;;8.73;7.93;;;28.80;99.90;;;;;;5098874;28;20463;-57
2022/08/20 12:50:11;;;;;;;9.60;8.67;;;29.30;99.90;;;;;;5097085;28;20423;-50
2022/08/20 12:52:41;;;;;;;8.40;7.60;;;29.50;99.90;;;;;;5096347;28;20463;-56